createdAt,value
2023-05-15T00:02:26.821Z,6.70
2023-05-15T00:04:54.322Z,7.03
2023-05-15T00:07:21.565Z,6.83
2023-05-15T00:09:48.862Z,7.90
2023-05-15T00:12:16.022Z,7.37
2023-05-15T00:14:43.195Z,6.50
2023-05-15T00:17:10.514Z,8.23
2023-05-15T00:19:37.720Z,6.97
2023-05-15T00:22:05.054Z,7.23
2023-05-15T00:24:32.215Z,7.23
2023-05-15T00:27:00.411Z,6.40
2023-05-15T00:29:27.581Z,7.17
2023-05-15T00:31:55.010Z,6.60
2023-05-15T00:34:22.940Z,7.93
2023-05-15T00:36:50.135Z,6.27
2023-05-15T00:39:17.626Z,7.83
2023-05-15T00:41:45.905Z,6.73
2023-05-15T00:44:13.427Z,7.17
2023-05-15T00:46:40.802Z,6.60
2023-05-15T00:49:13.460Z,7.13
2023-05-15T00:51:44.100Z,6.83
2023-05-15T00:54:11.751Z,7.30
2023-05-15T00:56:39.417Z,7.20
2023-05-15T00:59:07.340Z,6.30
2023-05-15T01:01:34.846Z,6.77
2023-05-15T01:04:02.860Z,6.90
2023-05-15T01:06:33.259Z,7.20
2023-05-15T01:09:06.701Z,7.50
2023-05-15T01:11:36.487Z,7.83
2023-05-15T01:14:07.546Z,7.20
2023-05-15T01:16:34.981Z,7.40
2023-05-15T01:19:02.804Z,7.43
2023-05-15T01:21:33.200Z,6.90
2023-05-15T01:24:00.416Z,6.90
2023-05-15T01:26:50.902Z,6.97
2023-05-15T01:29:23.830Z,7.93
2023-05-15T01:31:54.929Z,7.17
2023-05-15T01:34:23.906Z,6.70
2023-05-15T01:36:54.241Z,7.03
2023-05-15T01:39:23.927Z,6.37
2023-05-15T01:41:51.142Z,7.00
2023-05-15T01:44:20.361Z,7.73
2023-05-15T01:46:50.769Z,7.30
2023-05-15T01:49:19.779Z,6.50
2023-05-15T01:51:48.780Z,6.97
2023-05-15T01:54:16.562Z,7.13
2023-05-15T01:56:45.270Z,7.43
2023-05-15T01:59:16.110Z,6.33
2023-05-15T02:01:45.694Z,8.40
2023-05-15T02:04:13.170Z,6.40
2023-05-15T02:06:41.134Z,8.33
2023-05-15T02:09:09.175Z,6.60
2023-05-15T02:11:37.103Z,7.40
2023-05-15T02:14:05.528Z,7.43
2023-05-15T02:16:32.815Z,8.10
2023-05-15T02:19:00.128Z,7.40
2023-05-15T02:21:27.430Z,7.70
2023-05-15T02:23:54.619Z,7.90
2023-05-15T02:26:40.101Z,7.87
2023-05-15T02:29:21.220Z,6.53
2023-05-15T02:31:53.438Z,7.43
2023-05-15T02:34:23.725Z,8.87
2023-05-15T02:36:52.185Z,7.20
2023-05-15T02:39:23.433Z,7.10
2023-05-15T02:41:52.305Z,7.07
2023-05-15T02:44:19.941Z,7.63
2023-05-15T02:46:48.651Z,7.50
2023-05-15T02:49:16.176Z,7.63
2023-05-15T02:51:43.357Z,9.00
2023-05-15T02:54:10.710Z,6.80
2023-05-15T02:56:37.854Z,7.10
2023-05-15T02:59:05.595Z,7.43
2023-05-15T03:01:32.806Z,7.23
2023-05-15T03:04:00.010Z,7.47
2023-05-15T03:06:27.516Z,7.07
2023-05-15T03:08:54.724Z,7.77
2023-05-15T03:11:22.037Z,8.57
2023-05-15T03:13:49.187Z,8.23
2023-05-15T03:16:16.340Z,7.43
2023-05-15T03:18:43.530Z,8.00
2023-05-15T03:21:10.777Z,8.53
2023-05-15T03:23:38.194Z,7.20
2023-05-15T03:26:05.546Z,7.70
2023-05-15T03:28:32.743Z,7.77
2023-05-15T03:31:00.071Z,7.30
2023-05-15T03:33:27.403Z,7.23
2023-05-15T03:35:54.560Z,7.97
2023-05-15T03:38:21.770Z,8.40
2023-05-15T03:40:50.987Z,7.70
2023-05-15T03:43:18.546Z,9.00
2023-05-15T03:45:45.845Z,7.67
2023-05-15T03:48:13.042Z,7.57
2023-05-15T03:50:40.398Z,8.17
2023-05-15T03:53:07.709Z,7.57
2023-05-15T03:55:34.937Z,9.07
2023-05-15T03:58:02.604Z,9.13
2023-05-15T04:00:29.796Z,9.07
2023-05-15T04:02:57.062Z,7.83
2023-05-15T04:05:24.579Z,7.97
2023-05-15T04:07:52.013Z,10.67
2023-05-15T04:10:19.517Z,7.20
2023-05-15T04:12:47.908Z,7.27
2023-05-15T04:15:26.187Z,7.87
2023-05-15T04:17:54.292Z,9.70
2023-05-15T04:20:22.563Z,7.97
2023-05-15T04:22:50.224Z,8.23
2023-05-15T04:25:18.134Z,7.93
2023-05-15T04:27:45.936Z,8.07
2023-05-15T04:30:13.515Z,9.10
2023-05-15T04:32:41.170Z,8.53
2023-05-15T04:35:10.265Z,8.07
2023-05-15T04:37:37.898Z,10.23
2023-05-15T04:40:07.071Z,8.63
2023-05-15T04:42:34.673Z,7.67
2023-05-15T04:45:02.408Z,9.27
2023-05-15T04:47:29.682Z,7.47
2023-05-15T04:49:56.880Z,8.10
2023-05-15T04:52:24.078Z,9.20
2023-05-15T04:54:53.033Z,8.40
2023-05-15T04:57:21.473Z,9.83
2023-05-15T04:59:48.710Z,7.90
2023-05-15T05:02:15.885Z,7.93
2023-05-15T05:04:45.716Z,9.57
2023-05-15T05:07:13.020Z,7.93
2023-05-15T05:09:40.418Z,7.60
2023-05-15T05:12:08.301Z,8.03
2023-05-15T05:14:35.704Z,9.10
2023-05-15T05:17:03.182Z,9.90
2023-05-15T05:19:30.480Z,9.33
2023-05-15T05:22:01.373Z,9.50
2023-05-15T05:24:28.614Z,8.60
2023-05-15T05:26:58.196Z,10.13
2023-05-15T05:29:26.101Z,9.97
2023-05-15T05:31:53.626Z,9.77
2023-05-15T05:34:21.137Z,8.17
2023-05-15T05:36:48.418Z,8.97
2023-05-15T05:39:16.923Z,10.13
2023-05-15T05:41:44.446Z,10.23
2023-05-15T05:44:11.943Z,8.80
2023-05-15T05:46:39.181Z,8.00
2023-05-15T05:49:06.612Z,9.23
2023-05-15T05:51:37.016Z,10.03
2023-05-15T05:54:04.232Z,8.03
2023-05-15T05:56:31.507Z,9.00
2023-05-15T05:59:01.682Z,8.50
2023-05-15T06:01:28.993Z,10.03
2023-05-15T06:03:56.335Z,9.00
2023-05-15T06:06:23.796Z,8.87
2023-05-15T06:08:50.971Z,10.37
2023-05-15T06:11:18.384Z,10.30
2023-05-15T06:13:45.561Z,10.10
2023-05-15T06:16:12.739Z,11.07
2023-05-15T06:18:40.044Z,8.27
2023-05-15T06:21:07.208Z,10.33
2023-05-15T06:23:34.397Z,6.93
2023-05-15T06:26:01.744Z,8.50
2023-05-15T06:28:29.221Z,8.90
2023-05-15T06:30:56.500Z,9.60
2023-05-15T06:33:23.679Z,10.90
2023-05-15T06:35:50.893Z,8.30
2023-05-15T06:38:18.269Z,9.67
2023-05-15T06:40:45.728Z,11.00
2023-05-15T06:43:12.966Z,10.07
2023-05-15T06:45:40.120Z,8.97
2023-05-15T06:48:07.461Z,9.27
2023-05-15T06:50:34.695Z,10.67
2023-05-15T06:53:01.974Z,8.27
2023-05-15T06:55:29.168Z,7.37
2023-05-15T06:57:56.439Z,8.40
2023-05-15T07:00:23.617Z,8.07
2023-05-15T07:02:50.902Z,7.30
2023-05-15T07:05:18.229Z,6.70
2023-05-15T07:07:45.942Z,9.60
2023-05-15T07:10:13.141Z,10.70
2023-05-15T07:12:40.380Z,7.50
2023-05-15T07:15:07.859Z,9.50
2023-05-15T07:17:35.219Z,10.00
2023-05-15T07:20:02.542Z,9.10
2023-05-15T07:22:30.517Z,10.20
2023-05-15T07:24:58.619Z,9.20
2023-05-15T07:27:26.629Z,8.33
2023-05-15T07:29:54.612Z,9.77
2023-05-15T07:32:21.849Z,9.70
2023-05-15T07:34:49.178Z,8.20
2023-05-15T07:37:16.968Z,14.10
2023-05-15T07:39:44.356Z,8.27
2023-05-15T07:42:11.684Z,9.13
2023-05-15T07:44:38.855Z,10.10
2023-05-15T07:47:06.202Z,7.10
2023-05-15T07:49:33.705Z,8.80
2023-05-15T07:52:02.169Z,10.33
2023-05-15T07:54:31.814Z,8.33
2023-05-15T07:56:59.102Z,9.07
2023-05-15T07:59:26.284Z,7.07
2023-05-15T08:01:53.555Z,9.87
2023-05-15T08:04:20.827Z,8.27
2023-05-15T08:06:48.093Z,8.57
2023-05-15T08:09:15.295Z,9.73
2023-05-15T08:11:42.473Z,7.88
2023-05-15T08:14:11.630Z,9.07
2023-05-15T08:16:40.409Z,10.73
2023-05-15T08:19:08.006Z,7.68
2023-05-15T08:21:35.463Z,7.05
2023-05-15T08:24:02.705Z,9.13
2023-05-15T08:26:30.058Z,7.27
2023-05-15T08:28:57.323Z,7.13
2023-05-15T08:31:24.550Z,7.97
2023-05-15T08:33:51.776Z,9.90
2023-05-15T08:36:19.802Z,8.52
2023-05-15T08:38:47.158Z,8.43
2023-05-15T08:41:38.705Z,7.40
2023-05-15T08:44:09.359Z,6.97
2023-05-15T08:46:36.924Z,10.25
2023-05-15T08:49:15.873Z,9.07
2023-05-15T08:51:43.508Z,7.20
2023-05-15T08:54:11.607Z,6.25
2023-05-15T08:56:38.887Z,7.20
2023-05-15T08:59:06.596Z,6.03
2023-05-15T09:01:34.548Z,6.45
2023-05-15T09:04:01.840Z,7.95
2023-05-15T09:06:29.232Z,7.80
2023-05-15T09:08:57.098Z,6.45
2023-05-15T09:11:27.659Z,7.57
2023-05-15T09:13:57.892Z,7.07
2023-05-15T09:16:25.147Z,7.47
2023-05-15T09:18:53.134Z,9.38
2023-05-15T09:21:27.879Z,8.40
2023-05-15T09:24:16.969Z,7.30
2023-05-15T09:26:45.003Z,7.32
2023-05-15T09:29:12.301Z,10.50
2023-05-15T09:31:40.986Z,11.00
2023-05-15T09:34:10.187Z,8.20
2023-05-15T09:36:43.126Z,7.63
2023-05-15T09:39:10.834Z,7.22
2023-05-15T09:41:41.911Z,6.63
2023-05-15T09:44:20.655Z,8.23
2023-05-15T09:46:49.433Z,10.02
2023-05-15T09:49:16.657Z,7.53
2023-05-15T09:51:48.739Z,7.45
2023-05-15T09:54:16.621Z,7.50
2023-05-15T09:56:44.468Z,7.70
2023-05-15T09:59:15.833Z,7.28
2023-05-15T10:01:44.927Z,8.70
2023-05-15T10:04:12.995Z,6.68
2023-05-15T10:06:43.000Z,7.70
2023-05-15T10:09:11.357Z,10.43
2023-05-15T10:11:39.355Z,8.85
2023-05-15T10:14:07.158Z,8.05
2023-05-15T10:16:38.310Z,6.57
2023-05-15T10:19:07.813Z,7.22
2023-05-15T10:21:35.735Z,6.50
2023-05-15T10:24:04.507Z,5.55
2023-05-15T10:26:31.670Z,6.72
2023-05-15T10:28:59.855Z,7.35
2023-05-15T10:31:27.155Z,7.40
2023-05-15T10:33:55.914Z,6.55
2023-05-15T10:36:23.455Z,7.03
2023-05-15T10:38:51.304Z,7.82
2023-05-15T10:41:19.072Z,9.15
2023-05-15T10:43:46.567Z,8.80
2023-05-15T10:46:14.447Z,7.78
2023-05-15T10:48:41.898Z,7.00
2023-05-15T10:51:19.005Z,8.65
2023-05-15T10:53:46.611Z,7.97
2023-05-15T10:56:17.176Z,8.18
2023-05-15T10:58:48.626Z,6.05
2023-05-15T11:01:32.157Z,7.28
2023-05-15T11:04:06.563Z,7.63
2023-05-15T11:06:34.897Z,8.63
2023-05-15T11:09:20.992Z,6.80
2023-05-15T11:11:57.876Z,6.47
2023-05-15T11:14:26.400Z,8.40
2023-05-15T11:16:53.831Z,9.20
2023-05-15T11:19:24.595Z,9.23
2023-05-15T11:21:57.762Z,7.68
2023-05-15T11:24:47.559Z,10.27
2023-05-15T11:27:17.933Z,11.13
2023-05-15T11:30:04.272Z,6.45
2023-05-15T11:32:50.772Z,7.68
2023-05-15T11:35:30.012Z,6.82
2023-05-15T11:37:57.267Z,8.32
2023-05-15T11:40:28.922Z,7.93
2023-05-15T11:43:03.896Z,8.50
2023-05-15T11:45:32.052Z,7.70
2023-05-15T11:48:02.613Z,8.02
2023-05-15T11:50:32.380Z,7.53
2023-05-15T11:53:00.115Z,6.70
2023-05-15T11:55:27.646Z,7.32
2023-05-15T11:57:54.834Z,8.30
2023-05-15T12:00:22.234Z,9.00
2023-05-15T12:02:49.499Z,6.30
2023-05-15T12:05:16.687Z,6.38
2023-05-15T12:07:45.001Z,7.13
2023-05-15T12:10:12.888Z,7.80
2023-05-15T12:12:41.393Z,7.78
2023-05-15T12:15:16.747Z,7.80
2023-05-15T12:17:45.076Z,7.90
2023-05-15T12:20:13.506Z,8.30
2023-05-15T12:22:42.568Z,6.05
2023-05-15T12:25:11.317Z,7.32
2023-05-15T12:27:40.002Z,7.65
2023-05-15T12:30:07.744Z,6.85
2023-05-15T12:32:36.091Z,7.55
2023-05-15T12:35:03.836Z,7.05
2023-05-15T12:37:35.878Z,6.72
2023-05-15T12:40:11.977Z,8.00
2023-05-15T12:42:46.020Z,8.25
2023-05-15T12:45:14.343Z,6.43
2023-05-15T12:47:41.913Z,7.78
2023-05-15T12:50:14.780Z,7.07
2023-05-15T12:52:42.217Z,8.68
2023-05-15T12:55:09.502Z,9.73
2023-05-15T12:57:36.720Z,8.25
2023-05-15T13:00:05.203Z,7.05
2023-05-15T13:02:32.493Z,8.00
2023-05-15T13:05:02.345Z,7.47
2023-05-15T13:07:30.278Z,7.38
2023-05-15T13:10:06.944Z,5.80
2023-05-15T13:12:41.043Z,7.85
2023-05-15T13:15:08.605Z,7.28
2023-05-15T13:17:35.790Z,7.70
2023-05-15T13:20:05.620Z,5.72
2023-05-15T13:22:32.831Z,6.15
2023-05-15T13:25:00.062Z,6.10
2023-05-15T13:27:27.284Z,6.88
2023-05-15T13:29:54.463Z,7.28
2023-05-15T13:32:21.640Z,6.30
2023-05-15T13:34:48.816Z,6.63
2023-05-15T13:37:16.562Z,8.07
2023-05-15T13:39:43.839Z,6.28
2023-05-15T13:42:11.048Z,5.93
2023-05-15T13:44:38.412Z,6.85
2023-05-15T13:47:05.745Z,7.82
2023-05-15T13:49:32.960Z,6.32
2023-05-15T13:52:00.280Z,7.13
2023-05-15T13:54:27.457Z,7.43
2023-05-15T13:56:54.608Z,6.13
2023-05-15T13:59:21.746Z,6.22
2023-05-15T14:01:49.088Z,6.88
2023-05-15T14:04:16.770Z,7.97
2023-05-15T14:06:43.984Z,7.63
2023-05-15T14:09:11.328Z,9.07
2023-05-15T14:11:38.530Z,6.18
2023-05-15T14:14:05.889Z,7.53
2023-05-15T14:16:33.158Z,7.53
2023-05-15T14:19:00.484Z,7.22
2023-05-15T14:21:28.432Z,6.63
2023-05-15T14:23:55.575Z,7.70
2023-05-15T14:26:22.789Z,9.10
2023-05-15T14:28:50.043Z,7.63
2023-05-15T14:31:17.194Z,6.47
2023-05-15T14:33:44.352Z,8.23
2023-05-15T14:36:11.497Z,8.98
2023-05-15T14:38:38.875Z,10.13
2023-05-15T14:41:06.193Z,8.38
2023-05-15T14:43:33.422Z,7.35
2023-05-15T14:46:00.747Z,9.15
2023-05-15T14:48:29.902Z,7.88
2023-05-15T14:51:01.062Z,8.32
2023-05-15T14:53:28.290Z,7.43
2023-05-15T14:55:55.770Z,5.72
2023-05-15T14:58:22.969Z,7.22
2023-05-15T15:00:50.191Z,8.23
2023-05-15T15:03:19.188Z,7.38
2023-05-15T15:05:46.537Z,7.28
2023-05-15T15:08:13.765Z,8.95
2023-05-15T15:10:41.425Z,7.97
2023-05-15T15:13:10.088Z,7.47
2023-05-15T15:15:37.344Z,9.38
2023-05-15T15:18:04.787Z,8.10
2023-05-15T15:20:32.100Z,9.25
2023-05-15T15:22:59.511Z,7.32
2023-05-15T15:25:26.679Z,8.73
2023-05-15T15:27:54.001Z,6.28
2023-05-15T15:30:21.278Z,8.43
2023-05-15T15:32:48.537Z,9.57
2023-05-15T15:35:15.899Z,6.82
2023-05-15T15:37:43.119Z,8.60
2023-05-15T15:40:11.909Z,7.68
2023-05-15T15:42:39.138Z,8.45
2023-05-15T15:45:06.581Z,5.88
2023-05-15T15:47:33.775Z,8.70
2023-05-15T15:50:01.086Z,7.40
2023-05-15T15:52:28.452Z,8.60
2023-05-15T15:54:55.620Z,6.43
2023-05-15T15:57:22.823Z,5.93
2023-05-15T15:59:50.037Z,8.00
2023-05-15T16:02:17.599Z,5.90
2023-05-15T16:04:44.841Z,5.97
2023-05-15T16:07:12.138Z,5.57
2023-05-15T16:09:39.434Z,5.80
2023-05-15T16:12:06.710Z,6.30
2023-05-15T16:14:33.900Z,6.75
2023-05-15T16:17:03.853Z,6.10
2023-05-15T16:19:31.386Z,4.68
2023-05-15T16:21:58.578Z,4.95
2023-05-15T16:24:26.370Z,4.47
2023-05-15T16:26:53.546Z,7.85
2023-05-15T16:29:20.858Z,6.38
2023-05-15T16:31:48.122Z,6.23
2023-05-15T16:34:15.502Z,6.47
2023-05-15T16:36:42.759Z,4.45
2023-05-15T16:39:10.123Z,5.57
2023-05-15T16:41:37.363Z,5.70
2023-05-15T16:44:06.137Z,6.05
2023-05-15T16:46:33.360Z,6.72
2023-05-15T16:49:00.748Z,6.18
2023-05-15T16:51:27.950Z,5.57
2023-05-15T16:53:56.414Z,5.00
2023-05-15T16:56:24.325Z,5.13
2023-05-15T16:58:53.030Z,3.88
2023-05-15T17:01:20.359Z,4.78
2023-05-15T17:03:47.773Z,3.50
2023-05-15T17:06:15.029Z,3.80
2023-05-15T17:08:43.700Z,4.07
2023-05-15T17:11:11.397Z,4.00
2023-05-15T17:13:38.629Z,3.97
2023-05-15T17:16:06.084Z,4.25
2023-05-15T17:18:33.307Z,5.68
2023-05-15T17:21:00.605Z,5.15
2023-05-15T17:23:27.829Z,3.00
2023-05-15T17:25:54.985Z,2.55
2023-05-15T17:28:22.154Z,4.13
2023-05-15T17:30:49.430Z,4.47
2023-05-15T17:33:16.665Z,3.67
2023-05-15T17:35:44.014Z,6.25
2023-05-15T17:38:11.181Z,4.00
2023-05-15T17:40:38.394Z,3.13
2023-05-15T17:43:05.610Z,4.07
2023-05-15T17:45:32.958Z,5.50
2023-05-15T17:48:03.729Z,5.28
2023-05-15T17:50:31.018Z,4.32
2023-05-15T17:52:58.258Z,4.20
2023-05-15T17:55:25.741Z,4.90
2023-05-15T17:57:53.317Z,4.82
2023-05-15T18:00:20.643Z,5.68
2023-05-15T18:02:47.942Z,4.63
2023-05-15T18:05:15.226Z,3.93
2023-05-15T18:07:42.448Z,3.43
2023-05-15T18:10:10.373Z,4.37
2023-05-15T18:12:37.596Z,4.87
2023-05-15T18:15:05.547Z,4.50
2023-05-15T18:17:32.727Z,4.07
2023-05-15T18:20:00.053Z,3.73
2023-05-15T18:22:27.245Z,4.77
2023-05-15T18:24:54.537Z,4.20
2023-05-15T18:27:21.750Z,4.80
2023-05-15T18:29:49.518Z,6.57
2023-05-15T18:32:16.766Z,4.07
2023-05-15T18:34:43.976Z,4.63
2023-05-15T18:37:11.192Z,6.03
2023-05-15T18:39:39.146Z,5.70
2023-05-15T18:42:07.407Z,4.97
2023-05-15T18:44:35.977Z,4.97
2023-05-15T18:47:04.220Z,4.90
2023-05-15T18:49:31.632Z,4.20
2023-05-15T18:51:58.888Z,4.70
2023-05-15T18:54:26.205Z,4.00
2023-05-15T18:56:53.422Z,5.90
2023-05-15T18:59:20.748Z,4.03
2023-05-15T19:01:49.404Z,4.27
2023-05-15T19:04:16.627Z,3.70
2023-05-15T19:06:44.036Z,4.13
2023-05-15T19:09:11.233Z,4.40
2023-05-15T19:11:38.557Z,4.33
2023-05-15T19:14:05.751Z,4.77
2023-05-15T19:16:32.984Z,4.43
2023-05-15T19:19:00.300Z,4.73
2023-05-15T19:21:27.580Z,4.67
2023-05-15T19:23:54.763Z,4.97
2023-05-15T19:26:22.058Z,4.67
2023-05-15T19:28:49.355Z,4.30
2023-05-15T19:31:27.805Z,4.93
2023-05-15T19:33:58.896Z,5.37
2023-05-15T19:36:26.148Z,5.40
2023-05-15T19:38:53.532Z,4.17
2023-05-15T19:41:21.699Z,5.80
2023-05-15T19:43:50.749Z,4.57
2023-05-15T19:46:18.557Z,4.13
2023-05-15T19:48:46.018Z,4.00
2023-05-15T19:51:13.486Z,4.37
2023-05-15T19:53:41.458Z,3.93
2023-05-15T19:56:08.692Z,3.97
2023-05-15T19:58:35.951Z,3.90
2023-05-15T20:01:04.282Z,4.37
2023-05-15T20:03:34.533Z,4.60
2023-05-15T20:06:02.511Z,4.13
2023-05-15T20:08:30.223Z,5.60
2023-05-15T20:10:57.659Z,3.97
2023-05-15T20:13:24.905Z,5.30
2023-05-15T20:15:59.085Z,4.60
2023-05-15T20:18:27.306Z,6.07
2023-05-15T20:20:54.639Z,5.70
2023-05-15T20:23:22.073Z,4.50
2023-05-15T20:25:50.511Z,4.93
2023-05-15T20:28:17.961Z,5.70
2023-05-15T20:30:48.768Z,4.90
2023-05-15T20:33:15.947Z,4.57
2023-05-15T20:35:43.598Z,4.93
2023-05-15T20:38:11.865Z,4.97
2023-05-15T20:40:39.527Z,5.07
2023-05-15T20:43:07.019Z,5.57
2023-05-15T20:45:34.452Z,7.10
2023-05-15T20:48:01.814Z,6.30
2023-05-15T20:50:29.352Z,5.73
2023-05-15T20:52:56.563Z,5.20
2023-05-15T20:55:23.781Z,5.97
2023-05-15T20:57:51.037Z,6.43
2023-05-15T21:00:19.132Z,5.30
2023-05-15T21:02:46.979Z,6.07
2023-05-15T21:05:14.601Z,5.17
2023-05-15T21:07:41.978Z,6.70
2023-05-15T21:10:09.425Z,6.00
2023-05-15T21:12:36.745Z,4.13
2023-05-15T21:15:07.559Z,7.67
2023-05-15T21:17:34.883Z,5.13
2023-05-15T21:20:04.053Z,5.77
2023-05-15T21:22:31.365Z,5.40
2023-05-15T21:24:58.528Z,4.83
2023-05-15T21:27:25.789Z,5.47
2023-05-15T21:29:53.174Z,5.40
2023-05-15T21:32:23.044Z,4.70
2023-05-15T21:34:50.389Z,6.17
2023-05-15T21:37:17.546Z,5.13
2023-05-15T21:39:44.709Z,6.13
2023-05-15T21:42:11.879Z,5.00
2023-05-15T21:44:39.075Z,5.47
2023-05-15T21:47:06.370Z,5.60
2023-05-15T21:49:33.683Z,5.27
2023-05-15T21:52:00.870Z,4.60
2023-05-15T21:54:28.008Z,5.77
2023-05-15T21:56:55.345Z,6.97
2023-05-15T21:59:22.544Z,5.00
2023-05-15T22:01:49.782Z,6.47
2023-05-15T22:04:17.011Z,5.40
2023-05-15T22:06:44.295Z,5.90
2023-05-15T22:09:11.461Z,5.77
2023-05-15T22:11:38.648Z,4.83
2023-05-15T22:14:06.147Z,6.03
2023-05-15T22:16:34.010Z,5.50
2023-05-15T22:19:02.082Z,5.63
2023-05-15T22:21:29.567Z,7.57
2023-05-15T22:23:57.841Z,5.77
2023-05-15T22:26:25.167Z,8.47
2023-05-15T22:28:58.614Z,14.87
2023-05-15T22:31:26.425Z,8.23
2023-05-15T22:33:53.863Z,11.83
2023-05-15T22:36:21.335Z,10.00
2023-05-15T22:38:48.570Z,9.57
2023-05-15T22:41:15.804Z,10.80
2023-05-15T22:43:43.216Z,10.27
2023-05-15T22:46:10.520Z,13.70
2023-05-15T22:48:37.875Z,11.50
2023-05-15T22:51:05.176Z,13.50
2023-05-15T22:53:32.501Z,14.20
2023-05-15T22:55:59.663Z,12.67
2023-05-15T22:58:26.824Z,15.97
2023-05-15T23:00:54.088Z,15.97
2023-05-15T23:03:21.569Z,17.10
2023-05-15T23:05:50.099Z,17.57
2023-05-15T23:08:17.387Z,18.73
2023-05-15T23:10:44.596Z,18.23
2023-05-15T23:13:11.742Z,19.93
2023-05-15T23:15:39.019Z,20.27
2023-05-15T23:18:06.681Z,19.37
2023-05-15T23:20:34.291Z,20.37
2023-05-15T23:23:01.438Z,22.10
2023-05-15T23:25:28.756Z,22.83
2023-05-15T23:27:55.974Z,22.83
2023-05-15T23:30:23.132Z,22.53
2023-05-15T23:32:50.537Z,21.77
2023-05-15T23:35:17.761Z,22.33
2023-05-15T23:37:44.949Z,22.33
2023-05-15T23:40:12.520Z,21.03
2023-05-15T23:42:39.712Z,19.13
2023-05-15T23:45:07.253Z,21.77
2023-05-15T23:47:34.456Z,19.80
2023-05-15T23:50:01.647Z,19.50
2023-05-15T23:52:28.830Z,22.80
2023-05-15T23:54:55.991Z,21.47
2023-05-15T23:57:23.143Z,19.43
2023-05-15T23:59:50.579Z,19.23
